East Dubuque, Illinois
Current Conditions -  °F | °C
As of 9:53 PM on Friday 31 Oct 2014 (Local Time) from KDBQ Reporting Station
Clear Clear  
Wind Chill: 23°   Ceiling: Unl
Heat Index: 31°   Visibility: 10mi
Dew Point: 19°   Wind: 8mph
Humidity: 61%   Direction: 30°NNE
Pressure: 30.44"   Gusts: NA
Location:  42.49°N, 90.64°W
Report Text: KDBQ 010253Z AUTO 03007KT 10SM CLR M01/M07 A3044 RMK AO2 SLP322 T10061072 53013
Loading
Personal Weather Stations






























Interactive Weather Map
Tropical Storm Tracking
New forecast layout! Learn more

10-Day Weather Forecast

Advertisements
Track Severe Weather on mobile